createdAt,value
2019-01-14T00:01:01.800Z,2.30
2019-01-14T00:03:34.992Z,2.10
2019-01-14T00:06:10.213Z,2.40
2019-01-14T00:08:42.621Z,1.70
2019-01-14T00:11:15.522Z,2.70
2019-01-14T00:13:48.572Z,2.10
2019-01-14T00:16:21.371Z,1.70
2019-01-14T00:18:54.945Z,1.70
2019-01-14T00:21:27.737Z,1.93
2019-01-14T00:24:01.317Z,2.17
2019-01-14T00:26:34.039Z,2.07
2019-01-14T00:29:07.309Z,2.03
2019-01-14T00:31:40.289Z,2.30
2019-01-14T00:34:14.408Z,2.90
2019-01-14T00:36:47.410Z,2.03
2019-01-14T00:39:20.513Z,2.30
2019-01-14T00:41:53.384Z,2.00
2019-01-14T00:44:26.453Z,1.97
2019-01-14T00:46:59.293Z,2.07
2019-01-14T00:49:32.499Z,2.03
2019-01-14T00:52:05.468Z,2.20
2019-01-14T00:54:38.415Z,1.90
2019-01-14T00:57:11.459Z,1.70
2019-01-14T00:59:44.498Z,2.13
2019-01-14T01:02:17.251Z,2.03
2019-01-14T01:04:50.374Z,2.97
2019-01-14T01:07:23.127Z,2.40
2019-01-14T01:09:55.951Z,2.57
2019-01-14T01:12:30.117Z,2.10
2019-01-14T01:15:04.036Z,2.20
2019-01-14T01:17:37.130Z,1.70
2019-01-14T01:20:12.182Z,2.77
2019-01-14T01:22:46.142Z,2.00
2019-01-14T01:25:18.949Z,3.00
2019-01-14T01:27:51.744Z,2.50
2019-01-14T01:30:24.589Z,2.63
2019-01-14T01:32:57.501Z,1.90
2019-01-14T01:35:30.720Z,2.40
2019-01-14T01:38:03.699Z,2.30
2019-01-14T01:40:37.506Z,3.03
2019-01-14T01:43:10.492Z,2.70
2019-01-14T01:45:45.479Z,2.60
2019-01-14T01:48:18.492Z,3.07
2019-01-14T01:50:51.524Z,1.77
2019-01-14T01:53:24.483Z,2.60
2019-01-14T01:55:58.457Z,2.70
2019-01-14T01:58:31.283Z,3.03
2019-01-14T02:01:04.210Z,3.30
2019-01-14T02:03:37.035Z,2.77
2019-01-14T02:06:09.907Z,2.50
2019-01-14T02:08:42.806Z,2.40
2019-01-14T02:11:15.581Z,3.30
2019-01-14T02:13:49.498Z,2.50
2019-01-14T02:16:22.362Z,1.80
2019-01-14T02:18:55.438Z,2.60
2019-01-14T02:21:28.340Z,2.33
2019-01-14T02:24:01.328Z,2.27
2019-01-14T02:26:34.323Z,3.17
2019-01-14T02:29:07.490Z,2.73
2019-01-14T02:31:40.411Z,1.97
2019-01-14T02:34:13.305Z,2.20
2019-01-14T02:36:48.533Z,2.50
2019-01-14T02:39:20.434Z,1.80
2019-01-14T02:41:53.251Z,3.37
2019-01-14T02:44:26.179Z,2.63
2019-01-14T02:46:59.059Z,2.30
2019-01-14T02:49:32.660Z,2.30
2019-01-14T02:52:06.749Z,2.70
2019-01-14T02:54:39.919Z,3.10
2019-01-14T02:57:12.823Z,1.50
2019-01-14T02:59:45.608Z,2.30
2019-01-14T03:02:18.518Z,1.97
2019-01-14T03:04:52.479Z,1.20
2019-01-14T03:07:26.062Z,1.53
2019-01-14T03:09:59.016Z,1.73
2019-01-14T03:12:32.166Z,1.50
2019-01-14T03:15:05.040Z,1.60
2019-01-14T03:17:38.140Z,2.00
2019-01-14T03:20:13.223Z,1.37
2019-01-14T03:22:47.823Z,1.63
2019-01-14T03:25:21.211Z,2.10
2019-01-14T03:27:54.058Z,1.33
2019-01-14T03:30:26.969Z,1.17
2019-01-14T03:33:00.086Z,1.53
2019-01-14T03:35:32.947Z,1.47
2019-01-14T03:38:05.928Z,1.80
2019-01-14T03:40:38.904Z,2.70
2019-01-14T03:43:11.995Z,1.23
2019-01-14T03:45:44.893Z,2.30
2019-01-14T03:48:36.509Z,1.33
2019-01-14T03:51:09.386Z,1.30
2019-01-14T03:53:42.295Z,1.50
2019-01-14T03:56:16.959Z,1.63
2019-01-14T03:58:49.776Z,1.63
2019-01-14T04:01:23.236Z,1.00
2019-01-14T04:03:56.983Z,2.47
2019-01-14T04:06:30.051Z,1.13
2019-01-14T04:09:02.882Z,1.47
2019-01-14T04:11:35.934Z,1.20
2019-01-14T04:14:08.840Z,1.43
2019-01-14T04:16:41.798Z,1.83
2019-01-14T04:19:14.619Z,1.30
2019-01-14T04:21:47.619Z,1.10
2019-01-14T04:24:20.373Z,1.37
2019-01-14T04:26:53.780Z,1.43
2019-01-14T04:29:26.537Z,0.90
2019-01-14T04:31:59.890Z,1.20
2019-01-14T04:34:32.717Z,1.20
2019-01-14T04:37:05.812Z,1.20
2019-01-14T04:39:38.814Z,1.10
2019-01-14T04:42:11.902Z,1.10
2019-01-14T04:44:44.685Z,0.80
2019-01-14T04:47:17.653Z,1.00
2019-01-14T04:49:51.589Z,0.80
2019-01-14T04:52:24.859Z,0.77
2019-01-14T04:54:57.648Z,0.83
2019-01-14T04:57:30.732Z,0.93
2019-01-14T05:00:03.656Z,1.00
2019-01-14T05:02:36.897Z,0.90
2019-01-14T05:05:10.299Z,0.90
2019-01-14T05:07:43.402Z,1.13
2019-01-14T05:10:17.826Z,0.87
2019-01-14T05:12:50.894Z,0.70
2019-01-14T05:15:23.789Z,1.00
2019-01-14T05:17:57.478Z,0.90
2019-01-14T05:20:31.771Z,0.80
2019-01-14T05:23:04.587Z,0.90
2019-01-14T05:25:37.380Z,0.80
2019-01-14T05:28:11.169Z,0.70
2019-01-14T05:30:45.121Z,0.90
2019-01-14T05:33:18.770Z,0.80
2019-01-14T05:35:51.581Z,0.70
2019-01-14T05:38:25.693Z,0.60
2019-01-14T05:40:58.576Z,0.70
2019-01-14T05:43:31.612Z,0.83
2019-01-14T05:46:04.567Z,0.80
2019-01-14T05:48:38.545Z,0.90
2019-01-14T05:51:12.145Z,0.80
2019-01-14T05:53:45.044Z,0.60
2019-01-14T05:56:17.827Z,0.80
2019-01-14T05:58:51.831Z,0.63
2019-01-14T06:01:24.714Z,0.90
2019-01-14T06:03:57.793Z,0.60
2019-01-14T06:06:30.691Z,0.60
2019-01-14T06:09:03.876Z,0.60
2019-01-14T06:11:36.749Z,1.00
2019-01-14T06:14:10.980Z,0.77
2019-01-14T06:16:43.886Z,0.80
2019-01-14T06:19:16.779Z,0.80
2019-01-14T06:21:49.629Z,1.00
2019-01-14T06:24:22.614Z,0.70
2019-01-14T06:26:55.404Z,0.93
2019-01-14T06:29:28.377Z,0.90
2019-01-14T06:32:01.170Z,0.97
2019-01-14T06:34:34.944Z,1.10
2019-01-14T06:37:07.757Z,0.80
2019-01-14T06:39:40.689Z,1.00
2019-01-14T06:42:13.522Z,1.00
2019-01-14T06:44:47.338Z,0.70
2019-01-14T06:47:20.119Z,0.70
2019-01-14T06:49:52.988Z,0.80
2019-01-14T06:52:26.546Z,0.80
2019-01-14T06:55:01.236Z,1.13
2019-01-14T06:57:34.121Z,1.00
2019-01-14T07:00:08.476Z,1.27
2019-01-14T07:02:41.323Z,1.30
2019-01-14T07:05:14.334Z,0.97
2019-01-14T07:07:47.097Z,1.00
2019-01-14T07:10:22.816Z,1.43
2019-01-14T07:12:55.806Z,0.70
2019-01-14T07:15:28.766Z,1.70
2019-01-14T07:18:01.698Z,1.40
2019-01-14T07:20:35.435Z,1.03
2019-01-14T07:23:08.319Z,1.00
2019-01-14T07:25:41.392Z,1.07
2019-01-14T07:28:14.538Z,1.50
2019-01-14T07:30:47.438Z,0.80
2019-01-14T07:33:20.403Z,0.90
2019-01-14T07:35:53.089Z,0.73
2019-01-14T07:38:26.223Z,0.80
2019-01-14T07:40:58.755Z,0.90
2019-01-14T07:43:31.551Z,0.70
2019-01-14T07:46:04.632Z,0.73
2019-01-14T07:48:37.532Z,0.70
2019-01-14T07:51:10.506Z,0.73
2019-01-14T07:53:43.304Z,0.90
2019-01-14T07:56:16.980Z,1.33
2019-01-14T07:58:50.076Z,0.80
2019-01-14T08:01:23.579Z,0.80
2019-01-14T08:03:57.020Z,0.90
2019-01-14T08:06:29.844Z,1.10
2019-01-14T08:09:03.150Z,0.90
2019-01-14T08:11:36.579Z,1.20
2019-01-14T08:14:09.324Z,0.90
2019-01-14T08:16:42.462Z,0.90
2019-01-14T08:19:15.213Z,1.47
2019-01-14T08:21:48.137Z,0.97
2019-01-14T08:24:21.064Z,0.70
2019-01-14T08:26:55.367Z,1.00
2019-01-14T08:29:28.169Z,0.80
2019-01-14T08:32:01.150Z,0.80
2019-01-14T08:34:33.950Z,0.80
2019-01-14T08:37:08.412Z,0.80
2019-01-14T08:39:40.940Z,1.07
2019-01-14T08:42:14.415Z,0.97
2019-01-14T08:44:47.406Z,1.03
2019-01-14T08:47:20.455Z,1.20
2019-01-14T08:49:53.314Z,0.80
2019-01-14T08:52:26.483Z,0.70
2019-01-14T08:54:59.179Z,1.07
2019-01-14T08:57:32.070Z,1.00
2019-01-14T09:00:06.303Z,1.00
2019-01-14T09:02:39.060Z,0.80
2019-01-14T09:05:12.604Z,0.90
2019-01-14T09:07:45.852Z,0.80
2019-01-14T09:10:23.780Z,1.07
2019-01-14T09:12:57.456Z,0.97
2019-01-14T09:15:30.752Z,1.00
2019-01-14T09:18:03.872Z,1.13
2019-01-14T09:20:36.844Z,0.83
2019-01-14T09:23:09.908Z,0.90
2019-01-14T09:25:42.761Z,0.80
2019-01-14T09:28:15.893Z,0.70
2019-01-14T09:30:49.077Z,1.00
2019-01-14T09:33:22.314Z,1.07
2019-01-14T09:35:55.253Z,0.90
2019-01-14T09:38:28.245Z,1.03
2019-01-14T09:41:01.433Z,1.60
2019-01-14T09:43:34.833Z,1.00
2019-01-14T09:46:08.697Z,1.10
2019-01-14T09:48:41.705Z,1.10
2019-01-14T09:51:14.595Z,1.10
2019-01-14T09:53:47.635Z,1.00
2019-01-14T09:56:20.593Z,1.50
2019-01-14T09:58:54.209Z,1.00
2019-01-14T10:01:27.457Z,0.97
2019-01-14T10:04:00.836Z,1.30
2019-01-14T10:06:34.662Z,0.90
2019-01-14T10:09:08.876Z,1.10
2019-01-14T10:11:43.224Z,0.80
2019-01-14T10:14:19.545Z,0.90
2019-01-14T10:16:53.581Z,1.00
2019-01-14T10:19:26.456Z,1.10
2019-01-14T10:21:59.485Z,0.80
2019-01-14T10:24:32.417Z,1.10
2019-01-14T10:27:05.705Z,0.80
2019-01-14T10:29:38.536Z,1.37
2019-01-14T10:32:11.623Z,1.10
2019-01-14T10:34:44.607Z,1.10
2019-01-14T10:37:22.747Z,1.17
2019-01-14T10:39:52.359Z,1.40
2019-01-14T10:42:25.495Z,1.00
2019-01-14T10:44:58.359Z,0.80
2019-01-14T10:47:31.564Z,1.00
2019-01-14T10:50:04.627Z,1.30
2019-01-14T10:52:37.741Z,0.80
2019-01-14T10:55:12.479Z,1.00
2019-01-14T10:57:45.629Z,0.73
2019-01-14T11:00:20.601Z,0.80
2019-01-14T11:02:53.537Z,1.10
2019-01-14T11:05:29.174Z,0.83
2019-01-14T11:08:02.130Z,0.97
2019-01-14T11:10:35.259Z,0.73
2019-01-14T11:13:08.390Z,1.73
2019-01-14T11:15:41.297Z,0.60
2019-01-14T11:18:14.771Z,0.80
2019-01-14T11:20:48.402Z,0.67
2019-01-14T11:23:21.567Z,1.00
2019-01-14T11:25:54.611Z,0.70
2019-01-14T11:28:27.488Z,0.70
2019-01-14T11:31:00.548Z,0.80
2019-01-14T11:33:33.728Z,0.70
2019-01-14T11:36:07.252Z,1.10
2019-01-14T11:38:48.092Z,0.70
2019-01-14T11:41:21.160Z,2.13
2019-01-14T11:43:53.929Z,0.90
2019-01-14T11:46:27.007Z,0.90
2019-01-14T11:49:00.149Z,0.90
2019-01-14T11:51:33.102Z,0.70
2019-01-14T11:54:06.070Z,0.70
2019-01-14T11:56:39.081Z,0.70
2019-01-14T11:59:11.957Z,0.90
2019-01-14T12:01:45.533Z,0.80
2019-01-14T12:04:18.570Z,0.80
2019-01-14T12:06:51.622Z,0.70
2019-01-14T12:09:25.106Z,0.80
2019-01-14T12:11:58.174Z,0.90
2019-01-14T12:14:30.994Z,0.70
2019-01-14T12:17:04.537Z,1.20
2019-01-14T12:19:37.459Z,0.70
2019-01-14T12:22:10.599Z,0.67
2019-01-14T12:24:43.347Z,0.80
2019-01-14T12:27:16.403Z,0.67
2019-01-14T12:29:49.531Z,1.90
2019-01-14T12:32:22.320Z,0.90
2019-01-14T12:34:55.603Z,0.77
2019-01-14T12:37:28.632Z,0.67
2019-01-14T12:40:01.692Z,0.70
2019-01-14T12:42:34.596Z,0.70
2019-01-14T12:45:08.969Z,0.70
2019-01-14T12:47:41.872Z,0.80
2019-01-14T12:50:26.201Z,0.70
2019-01-14T12:52:59.100Z,0.80
2019-01-14T12:55:32.194Z,0.60
2019-01-14T12:58:05.611Z,0.67
2019-01-14T13:00:38.666Z,0.70
2019-01-14T13:03:11.802Z,0.77
2019-01-14T13:05:45.437Z,0.90
2019-01-14T13:08:18.589Z,0.70
2019-01-14T13:10:51.579Z,0.70
2019-01-14T13:13:24.841Z,0.77
2019-01-14T13:15:58.025Z,0.80
2019-01-14T13:18:31.622Z,1.20
2019-01-14T13:21:04.619Z,1.00
2019-01-14T13:23:38.770Z,1.00
2019-01-14T13:26:12.379Z,0.83
2019-01-14T13:28:45.695Z,1.43
2019-01-14T13:31:18.612Z,1.10
2019-01-14T13:33:51.775Z,0.90
2019-01-14T13:36:24.457Z,1.00
2019-01-14T13:38:58.940Z,0.80
2019-01-14T13:41:31.792Z,0.90
2019-01-14T13:44:04.709Z,0.87
2019-01-14T13:46:37.845Z,0.93
2019-01-14T13:49:10.749Z,1.00
2019-01-14T13:51:46.955Z,1.03
2019-01-14T13:54:18.987Z,1.27
2019-01-14T13:56:51.971Z,0.80
2019-01-14T13:59:24.990Z,0.90
2019-01-14T14:01:58.622Z,0.90
2019-01-14T14:04:31.541Z,0.90
2019-01-14T14:07:04.653Z,0.70
2019-01-14T14:09:41.103Z,0.83
2019-01-14T14:12:11.815Z,0.90
2019-01-14T14:14:44.701Z,0.90
2019-01-14T14:17:17.785Z,0.90
2019-01-14T14:19:50.763Z,1.10
2019-01-14T14:22:23.882Z,0.90
2019-01-14T14:24:56.650Z,0.80
2019-01-14T14:27:29.624Z,0.60
2019-01-14T14:30:03.067Z,0.80
2019-01-14T14:32:36.319Z,0.70
2019-01-14T14:35:09.360Z,0.90
2019-01-14T14:37:42.743Z,0.60
2019-01-14T14:40:16.251Z,0.60
2019-01-14T14:42:49.189Z,0.70
2019-01-14T14:45:21.992Z,1.63
2019-01-14T14:47:55.211Z,0.80
2019-01-14T14:50:28.177Z,0.73
2019-01-14T14:53:01.175Z,1.57
2019-01-14T14:55:34.685Z,0.93
2019-01-14T14:58:08.133Z,0.80
2019-01-14T15:00:41.614Z,1.07
2019-01-14T15:03:15.029Z,1.07
2019-01-14T15:05:48.122Z,0.87
2019-01-14T15:08:22.345Z,1.20
2019-01-14T15:11:01.913Z,1.50
2019-01-14T15:16:05.073Z,1.80
2019-01-14T15:18:37.849Z,0.90
2019-01-14T15:21:10.874Z,0.87
2019-01-14T15:23:44.853Z,1.40
2019-01-14T15:26:18.170Z,1.00
2019-01-14T15:28:51.130Z,1.23
2019-01-14T15:31:24.130Z,1.20
2019-01-14T15:33:57.286Z,1.00
2019-01-14T15:36:30.309Z,0.93
2019-01-14T15:39:03.288Z,0.80
2019-01-14T15:41:36.080Z,1.10
2019-01-14T15:44:09.262Z,0.80
2019-01-14T15:46:42.061Z,1.00
2019-01-14T15:49:15.249Z,0.80
2019-01-14T15:51:48.285Z,0.87
2019-01-14T15:54:21.562Z,0.70
2019-01-14T15:56:54.541Z,0.90
2019-01-14T15:59:27.799Z,0.70
2019-01-14T16:02:01.015Z,0.80
2019-01-14T16:04:35.088Z,2.20
2019-01-14T16:07:08.063Z,1.10
2019-01-14T16:09:41.602Z,0.80
2019-01-14T16:12:15.535Z,1.10
2019-01-14T16:14:48.651Z,0.77
2019-01-14T16:17:21.660Z,0.77
2019-01-14T16:19:54.999Z,0.70
2019-01-14T16:22:27.760Z,0.60
2019-01-14T16:25:00.685Z,1.00
2019-01-14T16:27:33.607Z,0.70
2019-01-14T16:30:08.147Z,0.90
2019-01-14T16:32:41.629Z,0.80
2019-01-14T16:35:14.877Z,0.87
2019-01-14T16:37:47.776Z,1.20
2019-01-14T16:40:20.840Z,0.83
2019-01-14T16:42:54.110Z,0.70
2019-01-14T16:45:27.193Z,0.70
2019-01-14T16:48:00.325Z,0.70
2019-01-14T16:50:33.273Z,0.73
2019-01-14T16:53:07.238Z,0.80
2019-01-14T16:55:41.383Z,1.20
2019-01-14T16:58:14.748Z,0.90
2019-01-14T17:00:47.715Z,1.43
2019-01-14T17:03:21.069Z,1.20
2019-01-14T17:05:54.009Z,1.10
2019-01-14T17:08:26.985Z,1.20
2019-01-14T17:11:00.374Z,1.10
2019-01-14T17:13:33.490Z,1.37
2019-01-14T17:16:06.610Z,1.20
2019-01-14T17:18:39.402Z,0.90
2019-01-14T17:21:12.242Z,1.37
2019-01-14T17:23:45.291Z,1.10
2019-01-14T17:26:18.699Z,1.30
2019-01-14T17:28:51.640Z,1.50
2019-01-14T17:31:25.363Z,1.10
2019-01-14T17:33:58.347Z,1.27
2019-01-14T17:36:31.744Z,1.13
2019-01-14T17:39:05.112Z,1.13
2019-01-14T17:41:38.561Z,1.10
2019-01-14T17:44:11.532Z,1.10
2019-01-14T17:46:44.609Z,1.03
2019-01-14T17:49:17.489Z,1.03
2019-01-14T17:51:50.487Z,0.90
2019-01-14T17:54:26.577Z,1.83
2019-01-14T17:56:59.751Z,1.23
2019-01-14T17:59:32.518Z,1.20
2019-01-14T18:02:06.402Z,1.13
2019-01-14T18:04:39.766Z,1.00
2019-01-14T18:07:12.891Z,1.30
2019-01-14T18:09:45.882Z,1.13
2019-01-14T18:12:18.873Z,1.00
2019-01-14T18:14:51.638Z,1.30
2019-01-14T18:17:24.628Z,2.10
2019-01-14T18:19:57.528Z,1.17
2019-01-14T18:22:30.597Z,1.23
2019-01-14T18:25:03.601Z,1.00
2019-01-14T18:27:36.932Z,1.07
2019-01-14T18:30:14.621Z,1.30
2019-01-14T18:32:47.660Z,1.17
2019-01-14T18:35:20.564Z,1.30
2019-01-14T18:37:53.549Z,1.10
2019-01-14T18:40:33.514Z,1.00
2019-01-14T18:43:00.722Z,1.00
2019-01-14T18:45:33.653Z,0.80
2019-01-14T18:48:06.792Z,1.40
2019-01-14T18:50:39.814Z,1.60
2019-01-14T18:53:12.786Z,1.73
2019-01-14T18:55:45.591Z,1.10
2019-01-14T18:58:18.568Z,1.07
2019-01-14T19:00:51.235Z,1.30
2019-01-14T19:03:24.591Z,1.00
2019-01-14T19:05:57.630Z,1.13
2019-01-14T19:08:30.585Z,1.00
2019-01-14T19:11:03.501Z,1.73
2019-01-14T19:13:36.322Z,1.00
2019-01-14T19:16:09.270Z,1.20
2019-01-14T19:18:42.391Z,1.10
2019-01-14T19:21:15.269Z,1.00
2019-01-14T19:23:49.571Z,1.10
2019-01-14T19:26:22.440Z,1.10
2019-01-14T19:28:55.589Z,1.00
2019-01-14T19:31:28.411Z,1.07
2019-01-14T19:34:01.332Z,1.10
2019-01-14T19:36:35.344Z,1.20
2019-01-14T19:39:10.586Z,2.20
2019-01-14T19:41:43.536Z,1.00
2019-01-14T19:44:16.617Z,1.33
2019-01-14T19:46:49.714Z,1.00
2019-01-14T19:49:22.795Z,1.40
2019-01-14T19:51:55.779Z,0.87
2019-01-14T19:54:28.566Z,1.00
2019-01-14T19:57:01.628Z,0.90
2019-01-14T19:59:34.545Z,1.07
2019-01-14T20:02:07.512Z,1.27
2019-01-14T20:04:40.319Z,1.20
2019-01-14T20:07:13.844Z,1.20
2019-01-14T20:09:46.887Z,0.87
2019-01-14T20:12:19.695Z,1.10
2019-01-14T20:14:52.866Z,0.90
2019-01-14T20:17:25.656Z,0.80
2019-01-14T20:19:58.569Z,1.00
2019-01-14T20:22:31.711Z,0.90
2019-01-14T20:25:04.544Z,0.90
2019-01-14T20:27:38.288Z,0.80
2019-01-14T20:30:12.906Z,1.00
2019-01-14T20:32:46.018Z,0.90
2019-01-14T20:35:19.043Z,0.90
2019-01-14T20:37:52.300Z,1.20
2019-01-14T20:40:25.208Z,1.10
2019-01-14T20:42:58.238Z,1.20
2019-01-14T20:45:31.046Z,0.87
2019-01-14T20:48:04.156Z,1.10
2019-01-14T20:50:36.931Z,1.00
2019-01-14T20:53:13.671Z,0.80
2019-01-14T20:55:43.930Z,1.10
2019-01-14T20:58:16.903Z,0.80
2019-01-14T21:00:49.691Z,1.00
2019-01-14T21:03:22.688Z,1.30
2019-01-14T21:05:55.599Z,0.90
2019-01-14T21:08:29.087Z,1.20
2019-01-14T21:11:02.287Z,1.20
2019-01-14T21:13:35.340Z,1.00
2019-01-14T21:16:08.007Z,1.20
2019-01-14T21:18:41.042Z,1.23
2019-01-14T21:21:13.862Z,0.87
2019-01-14T21:23:46.771Z,0.90
2019-01-14T21:26:19.768Z,1.00
2019-01-14T21:28:52.550Z,0.77
2019-01-14T21:31:25.512Z,0.80
2019-01-14T21:33:58.343Z,0.90
2019-01-14T21:36:31.094Z,0.80
2019-01-14T21:39:04.283Z,0.83
2019-01-14T21:41:37.079Z,1.00
2019-01-14T21:44:10.059Z,1.53
2019-01-14T21:46:42.839Z,1.00
2019-01-14T21:49:15.623Z,0.80
2019-01-14T21:51:48.520Z,0.90
2019-01-14T21:54:21.545Z,1.10
2019-01-14T21:56:54.399Z,1.20
2019-01-14T21:59:28.242Z,1.13
2019-01-14T22:02:00.993Z,1.60
2019-01-14T22:04:33.928Z,1.63
2019-01-14T22:07:06.829Z,2.00
2019-01-14T22:09:40.208Z,1.40
2019-01-14T22:12:13.404Z,1.67
2019-01-14T22:14:46.488Z,1.73
2019-01-14T22:17:19.311Z,1.87
2019-01-14T22:19:52.490Z,1.70
2019-01-14T22:22:25.364Z,2.17
2019-01-14T22:24:58.644Z,2.00
2019-01-14T22:27:31.507Z,2.20
2019-01-14T22:30:04.727Z,1.80
2019-01-14T22:32:37.620Z,1.73
2019-01-14T22:35:10.599Z,1.80
2019-01-14T22:37:43.384Z,2.10
2019-01-14T22:40:17.143Z,1.70
2019-01-14T22:42:49.984Z,1.40
2019-01-14T22:45:22.956Z,1.80
2019-01-14T22:47:55.746Z,1.70
2019-01-14T22:50:28.737Z,1.90
2019-01-14T22:53:01.718Z,1.63
2019-01-14T22:55:34.701Z,1.50
2019-01-14T22:58:07.487Z,1.27
2019-01-14T23:01:01.412Z,1.20
2019-01-14T23:03:34.375Z,1.70
2019-01-14T23:06:07.443Z,1.53
2019-01-14T23:08:40.449Z,1.87
2019-01-14T23:11:14.511Z,1.40
2019-01-14T23:13:47.333Z,1.70
2019-01-14T23:16:21.394Z,1.40
2019-01-14T23:18:54.336Z,0.90
2019-01-14T23:21:27.300Z,1.60
2019-01-14T23:24:00.083Z,1.80
2019-01-14T23:26:33.057Z,2.20
2019-01-14T23:29:05.949Z,1.00
2019-01-14T23:31:39.186Z,1.10
2019-01-14T23:34:12.183Z,1.20
2019-01-14T23:36:45.019Z,1.03
2019-01-14T23:39:17.864Z,1.27
2019-01-14T23:41:50.789Z,1.27
2019-01-14T23:44:27.144Z,1.47
2019-01-14T23:47:00.032Z,1.10
2019-01-14T23:49:33.398Z,1.67
2019-01-14T23:52:06.530Z,1.50
2019-01-14T23:54:39.539Z,1.37
2019-01-14T23:57:12.392Z,1.33
2019-01-14T23:59:45.313Z,1.27
